createdAt,value
2019-05-06T07:03:21.732Z,159583.50
2019-05-06T07:10:44.496Z,159602.95
2019-05-06T07:39:53.279Z,160379.05
2019-05-06T07:45:15.060Z,160410.16
2019-05-06T07:51:05.929Z,160406.28
2019-05-06T07:57:05.496Z,160655.41
2019-05-06T08:07:44.136Z,160780.00
2019-05-06T08:12:40.084Z,160711.19
2019-05-06T08:18:06.614Z,160744.94
2019-05-06T08:23:18.217Z,160717.69
2019-05-06T08:28:46.055Z,160506.19
2019-05-06T08:33:55.689Z,160363.44
2019-05-06T08:39:37.744Z,160524.36
2019-05-06T08:44:39.561Z,160427.03
2019-05-06T08:49:49.772Z,160321.97
2019-05-06T08:55:06.625Z,160154.75
2019-05-06T09:05:37.178Z,160357.00
2019-05-06T09:16:09.681Z,161091.69
2019-05-06T09:21:55.115Z,161030.62
2019-05-06T09:27:33.300Z,160750.13
2019-05-06T09:32:42.655Z,160563.28
2019-05-06T09:38:23.766Z,160401.05
2019-05-06T09:43:45.146Z,160286.98
2019-05-06T09:50:57.539Z,160258.45
2019-05-06T09:56:49.537Z,160254.58
2019-05-06T10:02:24.879Z,160280.50
2019-05-06T10:08:03.071Z,160332.33
2019-05-06T10:14:03.404Z,160358.25
2019-05-06T10:18:57.376Z,160406.28
2019-05-06T10:23:54.697Z,160371.25
2019-05-06T10:28:54.200Z,160391.98
2019-05-06T10:34:04.811Z,160391.98
2019-05-06T10:39:04.104Z,160228.61
2019-05-06T10:44:14.789Z,160102.92
2019-05-06T10:49:41.900Z,160076.97
2019-05-06T11:11:38.343Z,160248.09
2019-05-06T11:16:37.835Z,160259.77
2019-05-06T11:22:04.441Z,160231.22
2019-05-06T11:27:46.484Z,160328.45
2019-05-06T11:32:45.819Z,160399.78
2019-05-06T11:37:56.884Z,160485.44
2019-05-06T11:43:12.384Z,160624.22
2019-05-06T11:48:46.953Z,160690.42
2019-05-06T11:53:56.146Z,160676.17
2019-05-06T11:58:55.017Z,160781.27
2019-05-06T12:03:49.078Z,160830.66
2019-05-06T12:08:54.240Z,160954.03
2019-05-06T12:14:27.870Z,160939.72
2019-05-06T12:20:14.927Z,161033.25
2019-05-06T12:25:25.548Z,161108.58
2019-05-06T12:30:44.535Z,160957.92
2019-05-06T12:37:59.228Z,160918.95
2019-05-06T12:43:05.348Z,160874.80
2019-05-06T12:48:16.510Z,160863.11
2019-05-06T12:53:25.116Z,160813.77
2019-05-06T12:58:26.271Z,160908.56
2019-05-06T13:03:44.901Z,161068.28
2019-05-06T13:10:08.059Z,161183.97
2019-05-06T13:15:30.263Z,161074.80
2019-05-06T13:20:35.850Z,160964.42
2019-05-06T13:25:29.859Z,160952.73
2019-05-06T13:30:23.110Z,160903.37
2019-05-06T13:35:17.565Z,160859.22
2019-05-06T13:40:29.114Z,160800.77
2019-05-06T13:45:37.783Z,160738.44
2019-05-06T13:50:34.501Z,160648.91
2019-05-06T13:55:45.014Z,160635.91
2019-05-06T14:00:52.500Z,160589.22
2019-05-06T14:05:49.142Z,160582.72
2019-05-06T14:11:04.079Z,160596.98
2019-05-06T14:16:26.919Z,160576.23
2019-05-06T14:21:44.516Z,160596.98
2019-05-06T14:26:46.758Z,160552.86
2019-05-06T14:31:59.120Z,160596.98
2019-05-06T14:36:55.278Z,160609.97
2019-05-06T14:41:55.043Z,160545.11
2019-05-06T14:47:02.161Z,160488.00
2019-05-06T14:52:08.003Z,160454.31
2019-05-06T14:57:14.449Z,160342.70
2019-05-06T15:02:26.927Z,160241.59
2019-05-06T15:08:09.477Z,160061.42
2019-05-06T15:13:14.954Z,159935.69
2019-05-06T15:18:56.683Z,159842.47
2019-05-06T15:24:31.393Z,159744.06
2019-05-06T15:29:56.045Z,159745.36
2019-05-06T15:35:10.284Z,159733.70
2019-05-06T15:40:37.564Z,159667.67
2019-05-06T16:04:26.160Z,159764.77
2019-05-06T16:17:24.228Z,159754.41
2019-05-06T16:24:21.733Z,159776.42
2019-05-06T16:29:14.911Z,159793.27
2019-05-06T16:34:23.472Z,159778.98
2019-05-06T16:46:49.062Z,159767.33
2019-05-06T16:52:35.741Z,159790.66
2019-05-06T16:58:04.263Z,159788.09
2019-05-06T17:03:15.173Z,159776.42
2019-05-06T17:13:54.684Z,159775.13
2019-05-06T17:25:47.079Z,159790.66
2019-05-06T17:32:24.491Z,159784.16
2019-05-06T17:37:58.233Z,159769.94
2019-05-06T17:43:24.753Z,159751.80
2019-05-06T17:53:49.103Z,159731.09
2019-05-06T18:04:36.169Z,159725.91
2019-05-06T18:09:49.535Z,159723.34
2019-05-06T18:14:59.544Z,159692.25
2019-05-06T18:20:21.970Z,159702.59
2019-05-06T18:36:43.358Z,159689.69
2019-05-06T18:48:48.973Z,159694.86
2019-05-06T18:57:16.144Z,159725.91
2019-05-06T19:02:09.605Z,159746.62
2019-05-06T19:10:22.267Z,159745.36
2019-05-06T19:30:25.712Z,159729.78
2019-05-06T20:10:48.139Z,159718.17
2019-05-06T21:14:34.670Z,159808.80
2019-05-06T21:20:09.823Z,159786.78
2019-05-06T22:35:16.728Z,159626.27
2019-05-06T22:56:43.688Z,159583.50
2019-05-06T23:36:57.519Z,159490.33
